createdAt,value
2023-10-23T00:00:43.548Z,16.42
2023-10-23T00:03:31.726Z,11.10
2023-10-23T00:06:19.832Z,13.32
2023-10-23T00:09:07.990Z,12.18
2023-10-23T00:11:56.349Z,13.90
2023-10-23T00:14:45.141Z,13.52
2023-10-23T00:17:33.167Z,14.57
2023-10-23T00:20:21.662Z,13.07
2023-10-23T00:23:09.794Z,13.95
2023-10-23T00:25:57.860Z,13.88
2023-10-23T00:28:45.820Z,12.63
2023-10-23T00:31:33.886Z,13.80
2023-10-23T00:34:24.223Z,13.27
2023-10-23T00:37:12.504Z,13.75
2023-10-23T00:40:01.802Z,15.07
2023-10-23T00:42:50.788Z,14.10
2023-10-23T00:45:50.517Z,14.05
2023-10-23T00:48:38.809Z,14.85
2023-10-23T00:51:29.716Z,13.57
2023-10-23T00:54:18.677Z,13.95
2023-10-23T00:57:10.134Z,14.65
2023-10-23T01:00:05.413Z,16.27
2023-10-23T01:02:53.490Z,15.65
2023-10-23T01:05:42.576Z,15.57
2023-10-23T01:08:31.342Z,16.52
2023-10-23T01:11:22.096Z,16.17
2023-10-23T01:14:10.364Z,12.52
2023-10-23T01:16:58.669Z,12.52
2023-10-23T01:19:49.352Z,13.55
2023-10-23T01:22:37.812Z,12.45
2023-10-23T01:25:26.055Z,14.15
2023-10-23T01:28:13.949Z,14.30
2023-10-23T01:31:02.010Z,13.52
2023-10-23T01:33:51.217Z,13.52
2023-10-23T01:36:39.264Z,13.23
2023-10-23T01:39:27.533Z,13.35
2023-10-23T01:42:15.482Z,15.68
2023-10-23T01:45:05.282Z,12.82
2023-10-23T01:47:53.285Z,12.82
2023-10-23T01:50:41.960Z,12.57
2023-10-23T01:53:31.246Z,13.02
2023-10-23T01:56:19.205Z,12.30
2023-10-23T01:59:07.647Z,14.93
2023-10-23T02:01:55.765Z,12.05
2023-10-23T02:04:44.382Z,12.57
2023-10-23T02:07:32.372Z,13.27
2023-10-23T02:10:20.903Z,13.48
2023-10-23T02:13:09.255Z,12.75
2023-10-23T02:15:57.217Z,13.55
2023-10-23T02:18:45.550Z,14.18
2023-10-23T02:21:34.077Z,17.73
2023-10-23T02:24:22.205Z,14.50
2023-10-23T02:27:10.771Z,13.20
2023-10-23T02:29:59.524Z,12.80
2023-10-23T02:32:47.464Z,12.43
2023-10-23T02:35:37.921Z,13.85
2023-10-23T02:38:25.780Z,13.50
2023-10-23T02:41:14.026Z,13.07
2023-10-23T02:44:02.851Z,14.63
2023-10-23T02:46:52.534Z,13.60
2023-10-23T02:49:40.827Z,13.70
2023-10-23T02:52:28.942Z,13.63
2023-10-23T02:55:16.873Z,15.60
2023-10-23T02:58:04.758Z,14.15
2023-10-23T03:00:54.183Z,13.05
2023-10-23T03:03:42.881Z,14.52
2023-10-23T03:06:31.148Z,15.15
2023-10-23T03:09:21.286Z,18.08
2023-10-23T03:12:09.384Z,16.45
2023-10-23T03:14:57.544Z,15.25
2023-10-23T03:17:45.535Z,14.98
2023-10-23T03:20:35.443Z,16.15
2023-10-23T03:23:23.326Z,13.95
2023-10-23T03:26:11.242Z,13.15
2023-10-23T03:28:59.171Z,12.85
2023-10-23T03:31:47.231Z,13.52
2023-10-23T03:34:35.122Z,12.57
2023-10-23T03:37:23.003Z,13.73
2023-10-23T03:40:11.609Z,13.32
2023-10-23T03:42:59.606Z,12.50
2023-10-23T03:45:48.901Z,11.93
2023-10-23T03:48:37.589Z,11.73
2023-10-23T03:51:25.603Z,12.55
2023-10-23T03:54:14.611Z,12.00
2023-10-23T03:57:03.484Z,12.27
2023-10-23T03:59:51.543Z,12.10
2023-10-23T04:02:40.511Z,12.85
2023-10-23T04:05:32.223Z,12.90
2023-10-23T04:08:20.313Z,13.77
2023-10-23T04:11:12.348Z,14.10
2023-10-23T04:14:06.230Z,13.10
2023-10-23T04:16:54.195Z,14.30
2023-10-23T04:19:42.063Z,14.05
2023-10-23T04:22:29.915Z,12.85
2023-10-23T04:25:18.922Z,16.77
2023-10-23T04:28:06.883Z,23.33
2023-10-23T04:30:57.161Z,14.77
2023-10-23T04:33:45.156Z,37.58
2023-10-23T04:36:33.141Z,62.05
2023-10-23T04:39:21.940Z,60.88
2023-10-23T04:42:10.216Z,59.10
2023-10-23T04:44:58.992Z,83.50
2023-10-23T04:47:47.073Z,72.53
2023-10-23T04:50:37.507Z,105.97
2023-10-23T04:53:25.372Z,76.55
2023-10-23T04:56:13.362Z,85.70
2023-10-23T04:59:01.521Z,69.22
2023-10-23T05:01:51.156Z,77.30
2023-10-23T05:04:42.767Z,71.38
2023-10-23T05:07:31.403Z,35.08
2023-10-23T05:10:19.521Z,41.10
2023-10-23T05:13:07.682Z,45.50
2023-10-23T05:16:02.589Z,37.13
2023-10-23T05:18:50.592Z,28.58
2023-10-23T05:21:39.878Z,31.48
2023-10-23T05:24:30.928Z,19.25
2023-10-23T05:27:20.041Z,30.05
2023-10-23T05:33:14.879Z,25.60
2023-10-23T05:36:10.212Z,28.52
2023-10-23T05:39:11.342Z,52.53
2023-10-23T05:42:00.995Z,17.08
2023-10-23T05:44:51.897Z,29.95
2023-10-23T05:47:43.424Z,23.67
2023-10-23T05:50:32.358Z,29.67
2023-10-23T05:53:28.610Z,73.57
2023-10-23T05:56:16.495Z,49.78
2023-10-23T05:59:18.270Z,32.95
2023-10-23T06:02:08.165Z,45.92
2023-10-23T06:04:56.562Z,62.55
2023-10-23T06:07:56.454Z,47.13
2023-10-23T06:10:47.881Z,71.07
2023-10-23T06:13:37.153Z,46.10
2023-10-23T06:16:25.291Z,22.60
2023-10-23T06:19:16.295Z,21.13
2023-10-23T06:22:07.281Z,17.65
2023-10-23T06:24:57.686Z,17.88
2023-10-23T06:27:45.597Z,18.25
2023-10-23T06:30:37.756Z,17.15
2023-10-23T06:33:29.560Z,18.35
2023-10-23T06:36:21.306Z,17.70
2023-10-23T06:39:10.978Z,19.40
2023-10-23T06:42:00.777Z,20.75
2023-10-23T06:44:50.240Z,18.38
2023-10-23T06:47:40.174Z,18.25
2023-10-23T06:50:32.116Z,18.92
2023-10-23T06:53:28.329Z,18.25
2023-10-23T06:56:17.214Z,20.80
2023-10-23T06:59:18.181Z,17.95
2023-10-23T07:02:12.815Z,19.13
2023-10-23T07:05:04.727Z,16.60
2023-10-23T07:07:53.220Z,18.92
2023-10-23T07:10:41.496Z,20.42
2023-10-23T07:13:32.003Z,21.63
2023-10-23T07:16:28.144Z,21.55
2023-10-23T07:19:20.576Z,21.00
2023-10-23T07:22:22.297Z,18.42
2023-10-23T07:25:13.908Z,22.95
2023-10-23T07:28:12.455Z,22.05
2023-10-23T07:31:04.656Z,21.33
2023-10-23T07:34:00.540Z,24.58
2023-10-23T07:36:51.362Z,18.27
2023-10-23T07:39:50.917Z,19.10
2023-10-23T07:42:39.865Z,19.85
2023-10-23T07:45:33.030Z,18.58
2023-10-23T07:48:27.284Z,18.60
2023-10-23T07:51:19.627Z,17.90
2023-10-23T07:54:09.284Z,18.63
2023-10-23T07:57:02.597Z,19.10
2023-10-23T07:59:54.678Z,18.23
2023-10-23T08:02:45.894Z,17.17
2023-10-23T08:05:36.266Z,17.63
2023-10-23T08:08:26.221Z,18.70
2023-10-23T08:11:20.091Z,19.33
2023-10-23T08:14:13.554Z,17.88
2023-10-23T08:17:18.140Z,18.73
2023-10-23T08:20:18.493Z,18.85
2023-10-23T08:23:15.675Z,19.98
2023-10-23T08:26:07.859Z,20.05
2023-10-23T08:29:06.185Z,22.95
2023-10-23T08:35:05.549Z,23.27
2023-10-23T08:37:58.505Z,24.08
2023-10-23T08:40:51.451Z,23.90
2023-10-23T08:43:47.666Z,24.92
2023-10-23T08:46:38.525Z,23.08
2023-10-23T08:49:47.559Z,24.05
2023-10-23T08:52:49.605Z,21.85
2023-10-23T08:55:39.657Z,21.83
2023-10-23T08:58:29.795Z,21.50
2023-10-23T09:01:19.049Z,22.17
2023-10-23T09:04:09.156Z,21.50
2023-10-23T09:07:00.781Z,22.80
2023-10-23T09:09:52.472Z,22.75
2023-10-23T09:12:41.779Z,21.48
2023-10-23T09:15:29.744Z,22.05
2023-10-23T09:18:17.862Z,21.90
2023-10-23T09:21:08.400Z,20.73
2023-10-23T09:24:05.087Z,40.28
2023-10-23T09:26:53.793Z,20.67
2023-10-23T09:29:42.053Z,19.50
2023-10-23T09:32:30.940Z,20.13
2023-10-23T09:35:22.830Z,19.75
2023-10-23T09:38:16.632Z,18.25
2023-10-23T09:41:05.683Z,17.65
2023-10-23T09:43:55.949Z,18.05
2023-10-23T09:46:44.522Z,19.33
2023-10-23T09:49:38.887Z,18.92
2023-10-23T09:52:28.151Z,17.63
2023-10-23T09:55:21.070Z,16.70
2023-10-23T09:58:18.515Z,17.23
2023-10-23T10:01:10.099Z,16.85
2023-10-23T10:04:13.753Z,16.70
2023-10-23T10:07:29.322Z,16.95
2023-10-23T10:10:19.165Z,16.10
2023-10-23T10:13:16.147Z,16.63
2023-10-23T10:16:11.522Z,15.63
2023-10-23T10:19:02.077Z,14.77
2023-10-23T10:22:36.058Z,14.95
2023-10-23T10:25:27.198Z,14.57
2023-10-23T10:28:17.260Z,14.75
2023-10-23T10:31:05.271Z,16.85
2023-10-23T10:34:26.808Z,15.77
2023-10-23T10:37:11.710Z,17.58
2023-10-23T10:40:12.638Z,25.98
2023-10-23T10:43:06.617Z,14.90
2023-10-23T10:45:57.067Z,17.15
2023-10-23T10:48:48.489Z,15.95
2023-10-23T10:51:37.094Z,13.70
2023-10-23T10:54:33.289Z,15.00
2023-10-23T10:57:27.858Z,13.82
2023-10-23T11:00:17.408Z,14.13
2023-10-23T11:03:06.463Z,13.93
2023-10-23T11:06:03.325Z,15.18
2023-10-23T11:08:55.576Z,14.90
2023-10-23T11:11:43.720Z,14.45
2023-10-23T11:14:31.646Z,12.57
2023-10-23T11:17:19.578Z,13.48
2023-10-23T11:20:13.263Z,12.82
2023-10-23T11:23:01.627Z,14.65
2023-10-23T11:25:51.471Z,16.10
2023-10-23T11:28:39.413Z,14.60
2023-10-23T11:31:27.408Z,13.82
2023-10-23T11:34:17.453Z,12.13
2023-10-23T11:37:06.926Z,14.82
2023-10-23T11:39:58.065Z,13.48
2023-10-23T11:42:56.124Z,11.55
2023-10-23T11:48:32.982Z,19.60
2023-10-23T11:51:23.483Z,13.45
2023-10-23T11:54:12.504Z,14.30
2023-10-23T11:57:01.333Z,11.05
2023-10-23T11:59:49.554Z,11.52
2023-10-23T12:02:37.455Z,13.10
2023-10-23T12:05:26.341Z,14.50
2023-10-23T12:08:14.352Z,12.40
2023-10-23T12:11:02.217Z,15.18
2023-10-23T12:13:50.155Z,14.35
2023-10-23T12:16:38.209Z,12.13
2023-10-23T12:19:26.243Z,19.23
2023-10-23T12:22:14.259Z,10.43
2023-10-23T12:25:03.843Z,13.95
2023-10-23T12:27:52.810Z,12.85
2023-10-23T12:30:43.432Z,13.20
2023-10-23T12:33:37.528Z,16.23
2023-10-23T12:36:26.422Z,13.40
2023-10-23T12:39:14.294Z,12.50
2023-10-23T12:42:02.185Z,12.13
2023-10-23T12:44:54.231Z,14.13
2023-10-23T12:47:43.163Z,10.82
2023-10-23T12:50:31.149Z,14.98
2023-10-23T12:53:19.123Z,11.88
2023-10-23T12:56:07.317Z,12.48
2023-10-23T12:58:56.361Z,10.73
2023-10-23T13:01:44.357Z,15.80
2023-10-23T13:04:33.516Z,19.10
2023-10-23T13:07:24.005Z,16.45
2023-10-23T13:10:13.229Z,11.10
2023-10-23T13:13:01.333Z,11.93
2023-10-23T13:15:49.414Z,13.88
2023-10-23T13:18:52.488Z,15.35
2023-10-23T13:21:41.999Z,14.30
2023-10-23T13:24:30.031Z,14.27
2023-10-23T13:27:18.659Z,10.77
2023-10-23T13:30:07.251Z,10.45
2023-10-23T13:32:55.772Z,12.23
2023-10-23T13:35:43.821Z,14.02
2023-10-23T13:38:33.792Z,16.10
2023-10-23T13:41:22.476Z,11.68
2023-10-23T13:44:11.387Z,12.48
2023-10-23T13:47:00.359Z,9.57
2023-10-23T13:49:50.333Z,8.25
2023-10-23T13:52:39.711Z,11.00
2023-10-23T13:55:27.727Z,9.82
2023-10-23T13:58:16.364Z,9.93
2023-10-23T14:01:05.285Z,9.77
2023-10-23T14:03:54.762Z,13.73
2023-10-23T14:06:43.437Z,13.02
2023-10-23T14:09:43.306Z,10.85
2023-10-23T14:12:35.470Z,9.98
2023-10-23T14:15:23.605Z,11.80
2023-10-23T14:18:11.516Z,13.73
2023-10-23T14:20:59.519Z,14.40
2023-10-23T14:23:47.390Z,12.52
2023-10-23T14:26:35.242Z,12.20
2023-10-23T14:29:23.136Z,11.82
2023-10-23T14:32:11.104Z,16.25
2023-10-23T14:35:00.262Z,11.38
2023-10-23T14:37:54.438Z,13.02
2023-10-23T14:40:42.361Z,13.80
2023-10-23T14:43:32.714Z,13.02
2023-10-23T14:46:22.694Z,11.50
2023-10-23T14:49:11.291Z,15.45
2023-10-23T14:51:59.215Z,11.00
2023-10-23T14:54:47.693Z,16.02
2023-10-23T14:57:35.619Z,13.25
2023-10-23T15:00:23.512Z,15.43
2023-10-23T15:03:11.417Z,15.20
2023-10-23T15:05:59.430Z,18.85
2023-10-23T15:08:48.348Z,17.80
2023-10-23T15:11:36.269Z,15.57
2023-10-23T15:14:24.478Z,12.88
2023-10-23T15:17:12.426Z,14.07
2023-10-23T15:20:00.388Z,15.65
2023-10-23T15:22:49.311Z,15.15
2023-10-23T15:25:37.287Z,15.10
2023-10-23T15:28:26.717Z,13.80
2023-10-23T15:31:16.066Z,13.45
2023-10-23T15:34:04.761Z,16.63
2023-10-23T15:36:52.707Z,19.17
2023-10-23T15:39:44.035Z,17.25
2023-10-23T15:42:32.369Z,13.75
2023-10-23T15:45:20.263Z,15.40
2023-10-23T15:48:08.915Z,12.23
2023-10-23T15:50:58.253Z,11.90
2023-10-23T15:53:46.151Z,14.88
2023-10-23T15:56:35.654Z,14.73
2023-10-23T15:59:23.660Z,16.20
2023-10-23T16:02:11.971Z,11.73
2023-10-23T16:04:59.903Z,14.18
2023-10-23T16:07:47.819Z,12.13
2023-10-23T16:10:35.690Z,13.15
2023-10-23T16:13:23.993Z,15.52
2023-10-23T16:16:16.475Z,14.05
2023-10-23T16:19:06.051Z,13.68
2023-10-23T16:21:54.005Z,11.50
2023-10-23T16:24:42.903Z,10.65
2023-10-23T16:27:32.916Z,11.45
2023-10-23T16:30:24.663Z,19.80
2023-10-23T16:33:12.554Z,13.15
2023-10-23T16:36:00.383Z,11.55
2023-10-23T16:38:48.301Z,15.07
2023-10-23T16:41:36.118Z,14.25
2023-10-23T16:44:24.745Z,15.23
2023-10-23T16:47:14.294Z,13.02
2023-10-23T16:50:02.672Z,16.58
2023-10-23T16:52:52.301Z,15.57
2023-10-23T16:55:41.393Z,14.68
2023-10-23T16:58:31.825Z,13.05
2023-10-23T17:01:22.140Z,20.65
2023-10-23T17:04:10.603Z,14.35
2023-10-23T17:06:58.680Z,12.70
2023-10-23T17:09:48.582Z,14.38
2023-10-23T17:12:36.997Z,15.60
2023-10-23T17:15:25.885Z,14.00
2023-10-23T17:18:13.785Z,15.63
2023-10-23T17:21:03.062Z,13.82
2023-10-23T17:23:51.903Z,13.45
2023-10-23T17:26:43.229Z,15.07
2023-10-23T17:29:34.503Z,14.80
2023-10-23T17:32:22.515Z,15.55
2023-10-23T17:35:12.471Z,14.65
2023-10-23T17:38:01.751Z,17.05
2023-10-23T17:40:50.032Z,19.23
2023-10-23T17:43:39.281Z,16.60
2023-10-23T17:46:27.301Z,18.48
2023-10-23T17:49:19.908Z,20.98
2023-10-23T17:52:10.328Z,17.20
2023-10-23T17:54:58.375Z,21.25
2023-10-23T17:57:46.422Z,20.15
2023-10-23T18:00:34.525Z,19.85
2023-10-23T18:03:23.878Z,18.85
2023-10-23T18:06:11.826Z,19.48
2023-10-23T18:09:02.070Z,20.65
2023-10-23T18:11:50.749Z,21.90
2023-10-23T18:14:38.761Z,18.90
2023-10-23T18:17:27.826Z,22.95
2023-10-23T18:20:16.161Z,22.85
2023-10-23T18:23:04.336Z,22.05
2023-10-23T18:25:52.563Z,22.55
2023-10-23T18:28:41.958Z,20.33
2023-10-23T18:31:29.926Z,19.85
2023-10-23T18:34:17.982Z,22.27
2023-10-23T18:37:05.949Z,30.08
2023-10-23T18:39:54.193Z,20.52
2023-10-23T18:42:49.717Z,22.55
2023-10-23T18:45:42.457Z,18.00
2023-10-23T18:48:30.412Z,18.75
2023-10-23T18:51:19.070Z,20.83
2023-10-23T18:54:07.330Z,20.17
2023-10-23T18:56:56.647Z,22.02
2023-10-23T18:59:46.990Z,24.83
2023-10-23T19:02:36.475Z,22.85
2023-10-23T19:05:24.467Z,22.60
2023-10-23T19:08:12.690Z,22.17
2023-10-23T19:11:00.755Z,23.77
2023-10-23T19:13:48.696Z,23.08
2023-10-23T19:16:36.638Z,21.25
2023-10-23T19:19:24.976Z,23.83
2023-10-23T19:22:13.472Z,28.65
2023-10-23T19:25:01.545Z,22.55
2023-10-23T19:27:49.850Z,27.02
2023-10-23T19:30:37.767Z,24.80
2023-10-23T19:33:26.088Z,22.38
2023-10-23T19:36:15.243Z,22.75
2023-10-23T19:39:03.800Z,23.80
2023-10-23T19:41:57.718Z,23.35
2023-10-23T19:44:46.142Z,19.73
2023-10-23T19:47:40.646Z,22.08
2023-10-23T19:50:28.857Z,22.30
2023-10-23T19:53:18.485Z,20.52
2023-10-23T19:56:06.888Z,21.02
2023-10-23T19:58:54.829Z,17.67
2023-10-23T20:01:42.808Z,20.02
2023-10-23T20:04:32.485Z,17.20
2023-10-23T20:07:21.390Z,18.40
2023-10-23T20:10:12.001Z,15.52
2023-10-23T20:13:00.238Z,19.38
2023-10-23T20:15:48.194Z,18.80
2023-10-23T20:18:36.259Z,12.77
2023-10-23T20:21:24.190Z,17.20
2023-10-23T20:24:12.105Z,13.70
2023-10-23T20:27:00.049Z,15.35
2023-10-23T20:29:48.288Z,12.93
2023-10-23T20:32:36.404Z,13.18
2023-10-23T20:35:27.077Z,14.25
2023-10-23T20:38:14.999Z,14.30
2023-10-23T20:41:04.987Z,13.48
2023-10-23T20:43:52.880Z,12.85
2023-10-23T20:46:42.243Z,14.52
2023-10-23T20:49:30.236Z,14.27
2023-10-23T20:52:18.140Z,13.55
2023-10-23T20:55:06.583Z,14.88
2023-10-23T20:57:55.263Z,14.27
2023-10-23T21:00:43.136Z,15.73
2023-10-23T21:03:31.090Z,15.20
2023-10-23T21:06:20.472Z,15.65
2023-10-23T21:09:09.463Z,14.18
2023-10-23T21:11:57.326Z,13.88
2023-10-23T21:14:49.512Z,12.45
2023-10-23T21:17:37.950Z,12.45
2023-10-23T21:20:26.338Z,12.90
2023-10-23T21:23:14.219Z,14.52
2023-10-23T21:26:05.001Z,13.57
2023-10-23T21:28:56.234Z,13.70
2023-10-23T21:31:44.151Z,16.70
2023-10-23T21:34:32.245Z,14.25
2023-10-23T21:37:20.273Z,14.35
2023-10-23T21:40:09.134Z,13.32
2023-10-23T21:42:56.965Z,13.48
2023-10-23T21:45:44.793Z,14.13
2023-10-23T21:48:32.648Z,13.00
2023-10-23T21:51:20.703Z,14.10
2023-10-23T21:54:09.290Z,13.68
2023-10-23T21:57:21.447Z,16.38
2023-10-23T22:00:11.459Z,15.43
2023-10-23T22:03:03.755Z,14.65
2023-10-23T22:05:51.990Z,13.57
2023-10-23T22:08:40.801Z,13.65
2023-10-23T22:11:57.905Z,14.10
2023-10-23T22:14:46.798Z,14.35
2023-10-23T22:17:34.725Z,14.02
2023-10-23T22:20:23.011Z,14.88
2023-10-23T22:23:10.983Z,13.55
2023-10-23T22:26:00.489Z,14.38
2023-10-23T22:28:48.529Z,13.95
2023-10-23T22:31:36.608Z,14.82
2023-10-23T22:34:24.562Z,16.15
2023-10-23T22:37:59.668Z,16.25
2023-10-23T22:40:20.391Z,16.52
2023-10-23T22:43:08.359Z,20.48
2023-10-23T22:46:03.174Z,19.13
2023-10-23T22:48:51.920Z,19.75
2023-10-23T22:51:40.047Z,21.95
2023-10-23T22:54:28.448Z,18.95
2023-10-23T22:57:20.835Z,21.00
2023-10-23T23:00:12.596Z,18.67
2023-10-23T23:03:00.732Z,18.58
2023-10-23T23:05:51.936Z,19.02
2023-10-23T23:08:43.619Z,22.08
2023-10-23T23:11:32.740Z,19.95
2023-10-23T23:14:20.894Z,20.15
2023-10-23T23:17:12.919Z,23.52
2023-10-23T23:20:08.352Z,23.83
2023-10-23T23:22:56.176Z,23.65
2023-10-23T23:25:44.066Z,21.58
2023-10-23T23:28:32.298Z,22.30
2023-10-23T23:31:20.649Z,22.13
2023-10-23T23:34:08.712Z,21.48
2023-10-23T23:36:56.750Z,20.70
2023-10-23T23:39:44.587Z,22.02
2023-10-23T23:42:32.454Z,19.67
2023-10-23T23:45:20.367Z,19.35
2023-10-23T23:48:08.359Z,18.48
2023-10-23T23:50:56.310Z,18.48
2023-10-23T23:53:44.260Z,20.25
2023-10-23T23:56:33.315Z,19.40
2023-10-23T23:59:21.336Z,19.65
